Time;durP1;ratioP1;P1;durP2;ratioP2;P2;SDS_P1;SDS_P2;PMS_P1;PMS_P2;Temp;Humidity;BMP_temperature;BMP_pressure;BME280_temperature;BME280_humidity;BME280_pressure;Samples;Min_cycle;Max_cycle;Signal;HPM_P1;HPM_P2
2024/02/02 00:00:02;;;;;;;16.03;8.77;;;;;;;;;;685599;28;1835;-68
2024/02/02 00:00:28;;;;;;;15.77;9.07;;;;;;;;;;686793;28;1047;-70
2024/02/02 00:00:48;;;;;;;19.20;9.30;;;;;;;;;;686011;28;4302;-71
2024/02/02 00:01:08;;;;;;;16.67;8.73;;;;;;;;;;685184;28;2355;-71
2024/02/02 00:01:30;;;;;;;13.93;8.00;;;;;;;;;;686566;28;844;-71
2024/02/02 00:01:51;;;;;;;15.38;8.32;;;;;;;;;;686919;28;1223;-70
2024/02/02 00:02:11;;;;;;;15.75;8.60;;;;;;;;;;685229;28;2267;-72
2024/02/02 00:02:37;;;;;;;17.43;9.00;;;;;;;;;;686739;28;898;-68
2024/02/02 00:02:57;;;;;;;15.15;8.77;;;;;;;;;;687234;28;1047;-68
2024/02/02 00:03:18;;;;;;;15.17;8.47;;;;;;;;;;685798;28;2305;-70
2024/02/02 00:03:38;;;;;;;16.48;8.90;;;;;;;;;;683804;28;1204;-70
2024/02/02 00:03:58;;;;;;;17.33;8.70;;;;;;;;;;681863;28;4400;-70
2024/02/02 00:04:19;;;;;;;16.92;8.80;;;;;;;;;;682769;28;2501;-70
2024/02/02 00:04:39;;;;;;;15.63;8.77;;;;;;;;;;681568;29;925;-70
2024/02/02 00:04:59;;;;;;;16.10;8.67;;;;;;;;;;681683;29;1009;-70
2024/02/02 00:05:20;;;;;;;15.40;8.60;;;;;;;;;;680151;28;2449;-70
2024/02/02 00:05:41;;;;;;;16.23;9.50;;;;;;;;;;681421;28;973;-70
2024/02/02 00:06:02;;;;;;;15.07;8.80;;;;;;;;;;683936;28;1326;-70
2024/02/02 00:06:23;;;;;;;15.48;8.98;;;;;;;;;;682555;28;810;-73
2024/02/02 00:06:43;;;;;;;17.23;8.65;;;;;;;;;;684494;28;854;-68
2024/02/02 00:07:04;;;;;;;17.95;8.85;;;;;;;;;;687214;28;4261;-69
2024/02/02 00:07:26;;;;;;;17.33;9.20;;;;;;;;;;686314;28;1329;-69
2024/02/02 00:07:47;;;;;;;14.80;8.75;;;;;;;;;;686942;28;1356;-72
2024/02/02 00:08:08;;;;;;;18.55;9.10;;;;;;;;;;685902;28;2234;-69
2024/02/02 00:08:29;;;;;;;17.77;8.70;;;;;;;;;;685569;28;3730;-72
2024/02/02 00:08:50;;;;;;;15.55;8.70;;;;;;;;;;685916;28;4746;-69
2024/02/02 00:09:12;;;;;;;16.00;8.52;;;;;;;;;;685372;28;2181;-68
2024/02/02 00:09:33;;;;;;;16.15;8.70;;;;;;;;;;686756;28;1293;-71
2024/02/02 00:09:59;;;;;;;14.52;8.23;;;;;;;;;;685984;28;4816;-68
2024/02/02 00:10:20;;;;;;;14.23;8.73;;;;;;;;;;685469;28;1772;-69
2024/02/02 00:10:41;;;;;;;15.77;8.65;;;;;;;;;;686598;28;841;-69
2024/02/02 00:11:02;;;;;;;16.30;8.47;;;;;;;;;;686723;28;1362;-68
2024/02/02 00:11:22;;;;;;;14.77;8.50;;;;;;;;;;683785;28;2343;-72
2024/02/02 00:11:43;;;;;;;15.70;9.07;;;;;;;;;;686739;28;790;-70
2024/02/02 00:12:06;;;;;;;14.63;8.68;;;;;;;;;;685848;28;1862;-70
2024/02/02 00:12:26;;;;;;;15.75;8.68;;;;;;;;;;686798;28;1195;-69
2024/02/02 00:12:47;;;;;;;16.70;9.07;;;;;;;;;;687051;28;1359;-70
2024/02/02 00:13:08;;;;;;;14.02;8.35;;;;;;;;;;683952;28;4755;-68
2024/02/02 00:13:28;;;;;;;14.60;7.90;;;;;;;;;;687046;28;1063;-69
2024/02/02 00:13:49;;;;;;;15.00;8.50;;;;;;;;;;687027;28;888;-71
2024/02/02 00:14:09;;;;;;;13.63;8.50;;;;;;;;;;686279;28;1326;-75
2024/02/02 00:14:29;;;;;;;15.80;8.45;;;;;;;;;;686111;28;1323;-70
2024/02/02 00:14:50;;;;;;;16.23;8.70;;;;;;;;;;686211;28;839;-71
2024/02/02 00:15:10;;;;;;;15.40;8.93;;;;;;;;;;685857;28;2763;-71
2024/02/02 00:15:30;;;;;;;16.83;8.65;;;;;;;;;;687221;28;826;-71
2024/02/02 00:15:52;;;;;;;17.60;8.40;;;;;;;;;;685797;28;4466;-68
2024/02/02 00:16:13;;;;;;;16.25;8.00;;;;;;;;;;685202;28;4925;-71
2024/02/02 00:16:33;;;;;;;15.93;8.23;;;;;;;;;;689009;28;1312;-69
2024/02/02 00:16:53;;;;;;;15.13;8.30;;;;;;;;;;689403;28;833;-70
2024/02/02 00:17:14;;;;;;;15.10;8.03;;;;;;;;;;688235;28;2296;-69
2024/02/02 00:17:34;;;;;;;13.02;8.32;;;;;;;;;;689276;28;1025;-70
2024/02/02 00:17:55;;;;;;;13.57;8.43;;;;;;;;;;686704;28;1432;-70
2024/02/02 00:18:16;;;;;;;16.00;8.60;;;;;;;;;;683376;28;2268;-70
2024/02/02 00:18:36;;;;;;;15.35;8.13;;;;;;;;;;683978;28;899;-71
2024/02/02 00:18:57;;;;;;;14.00;8.20;;;;;;;;;;682127;28;4579;-69
2024/02/02 00:19:17;;;;;;;16.60;8.30;;;;;;;;;;680478;28;1408;-73
2024/02/02 00:19:37;;;;;;;16.35;8.43;;;;;;;;;;684096;28;1302;-70
2024/02/02 00:19:58;;;;;;;16.50;8.33;;;;;;;;;;686824;28;825;-70
2024/02/02 00:20:18;;;;;;;17.53;8.87;;;;;;;;;;688478;28;1850;-69
2024/02/02 00:20:38;;;;;;;15.98;8.70;;;;;;;;;;688352;28;1199;-70
2024/02/02 00:20:59;;;;;;;16.67;8.70;;;;;;;;;;688813;28;849;-70
2024/02/02 00:21:19;;;;;;;14.87;8.40;;;;;;;;;;687492;28;2616;-70
2024/02/02 00:21:39;;;;;;;16.63;8.47;;;;;;;;;;684048;28;869;-71
2024/02/02 00:22:00;;;;;;;15.20;8.50;;;;;;;;;;685064;28;4399;-70
2024/02/02 00:22:22;;;;;;;16.92;8.98;;;;;;;;;;685844;28;1869;-70
2024/02/02 00:22:42;;;;;;;15.45;8.73;;;;;;;;;;686881;28;905;-70
2024/02/02 00:23:03;;;;;;;17.07;8.87;;;;;;;;;;684535;28;1196;-69
2024/02/02 00:23:23;;;;;;;16.65;8.45;;;;;;;;;;683972;28;1898;-70
2024/02/02 00:23:44;;;;;;;17.50;8.40;;;;;;;;;;688036;28;1220;-70
2024/02/02 00:24:04;;;;;;;16.40;8.77;;;;;;;;;;687051;28;1809;-72
2024/02/02 00:24:24;;;;;;;17.33;8.53;;;;;;;;;;687731;28;821;-71
2024/02/02 00:24:45;;;;;;;15.93;8.03;;;;;;;;;;687483;28;1427;-71
2024/02/02 00:25:05;;;;;;;13.50;8.33;;;;;;;;;;684856;28;4315;-72
2024/02/02 00:25:26;;;;;;;14.38;8.75;;;;;;;;;;686872;28;1342;-71
2024/02/02 00:25:46;;;;;;;14.40;8.43;;;;;;;;;;686823;28;778;-71
2024/02/02 00:26:07;;;;;;;16.20;8.80;;;;;;;;;;685710;28;2480;-71
2024/02/02 00:26:27;;;;;;;16.33;9.13;;;;;;;;;;686240;28;1487;-69
2024/02/02 00:26:47;;;;;;;14.20;8.27;;;;;;;;;;686824;28;774;-72
2024/02/02 00:27:08;;;;;;;12.80;8.00;;;;;;;;;;685404;28;1747;-69
2024/02/02 00:27:28;;;;;;;16.92;8.75;;;;;;;;;;686260;28;790;-68
2024/02/02 00:27:49;;;;;;;16.60;8.73;;;;;;;;;;686147;28;4556;-69
2024/02/02 00:28:09;;;;;;;12.85;7.78;;;;;;;;;;685378;28;2338;-71
2024/02/02 00:28:29;;;;;;;13.13;7.80;;;;;;;;;;686702;28;1246;-71
2024/02/02 00:28:50;;;;;;;14.77;8.10;;;;;;;;;;686914;28;1079;-71
2024/02/02 00:29:10;;;;;;;16.40;8.40;;;;;;;;;;685679;28;1163;-70
2024/02/02 00:29:31;;;;;;;14.40;7.90;;;;;;;;;;686939;28;1074;-69
2024/02/02 00:29:51;;;;;;;14.98;8.23;;;;;;;;;;686724;28;1238;-72
2024/02/02 00:30:12;;;;;;;16.67;8.70;;;;;;;;;;685551;28;2232;-71
2024/02/02 00:30:35;;;;;;;14.33;7.87;;;;;;;;;;686500;28;948;-71
2024/02/02 00:30:55;;;;;;;16.30;8.02;;;;;;;;;;686326;28;4337;-69
2024/02/02 00:31:21;;;;;;;15.17;8.20;;;;;;;;;;685490;28;1951;-69
2024/02/02 00:31:42;;;;;;;15.00;8.25;;;;;;;;;;685498;28;1033;-69
2024/02/02 00:32:02;;;;;;;15.37;8.43;;;;;;;;;;687203;28;755;-69
2024/02/02 00:32:22;;;;;;;15.73;8.23;;;;;;;;;;686128;28;1017;-71
2024/02/02 00:32:44;;;;;;;12.77;7.50;;;;;;;;;;686681;28;802;-71
2024/02/02 00:33:06;;;;;;;11.73;7.13;;;;;;;;;;685910;28;2408;-69
2024/02/02 00:33:26;;;;;;;12.45;7.82;;;;;;;;;;686178;28;1247;-71
2024/02/02 00:33:46;;;;;;;15.30;8.03;;;;;;;;;;686095;28;849;-70
2024/02/02 00:34:07;;;;;;;14.40;7.93;;;;;;;;;;685206;28;4904;-71
2024/02/02 00:34:27;;;;;;;15.60;8.95;;;;;;;;;;686801;28;927;-71
2024/02/02 00:34:48;;;;;;;14.48;8.27;;;;;;;;;;686589;28;1374;-71
2024/02/02 00:35:08;;;;;;;15.13;8.23;;;;;;;;;;685803;28;2551;-70
2024/02/02 00:35:28;;;;;;;14.25;8.10;;;;;;;;;;686487;28;3840;-70
2024/02/02 00:35:49;;;;;;;14.93;7.90;;;;;;;;;;686496;28;4744;-69
2024/02/02 00:36:09;;;;;;;15.57;8.07;;;;;;;;;;685982;28;2325;-69
2024/02/02 00:36:30;;;;;;;14.75;7.78;;;;;;;;;;687017;28;1437;-69
2024/02/02 00:36:50;;;;;;;16.80;8.00;;;;;;;;;;686257;28;4616;-70
2024/02/02 00:37:10;;;;;;;15.60;8.18;;;;;;;;;;685633;28;2078;-70
2024/02/02 00:37:31;;;;;;;16.33;8.07;;;;;;;;;;686933;28;845;-68
2024/02/02 00:37:51;;;;;;;15.77;8.00;;;;;;;;;;686963;28;873;-69
2024/02/02 00:38:12;;;;;;;16.17;7.90;;;;;;;;;;685576;28;1783;-70
2024/02/02 00:38:32;;;;;;;16.30;8.13;;;;;;;;;;686799;28;763;-70
2024/02/02 00:38:52;;;;;;;17.07;7.97;;;;;;;;;;685796;28;1082;-69
2024/02/02 00:39:13;;;;;;;18.70;8.05;;;;;;;;;;685995;28;1025;-70
2024/02/02 00:39:33;;;;;;;14.77;8.30;;;;;;;;;;686376;28;731;-69
2024/02/02 00:39:54;;;;;;;14.60;8.27;;;;;;;;;;685414;28;4275;-70
2024/02/02 00:40:15;;;;;;;20.15;8.38;;;;;;;;;;686074;28;2510;-70
2024/02/02 00:40:35;;;;;;;18.20;8.40;;;;;;;;;;686935;28;1300;-71
2024/02/02 00:40:55;;;;;;;16.25;8.60;;;;;;;;;;686854;28;922;-70
2024/02/02 00:41:16;;;;;;;15.97;8.13;;;;;;;;;;685169;28;2318;-70
2024/02/02 00:41:36;;;;;;;14.03;7.67;;;;;;;;;;685578;28;1211;-68
2024/02/02 00:41:56;;;;;;;15.57;8.20;;;;;;;;;;686767;28;952;-71
2024/02/02 00:42:17;;;;;;;15.17;8.13;;;;;;;;;;685557;28;1444;-69
2024/02/02 00:42:37;;;;;;;14.93;8.50;;;;;;;;;;686702;28;889;-72
2024/02/02 00:42:58;;;;;;;14.67;7.97;;;;;;;;;;686321;28;4485;-69
2024/02/02 00:43:19;;;;;;;17.00;8.05;;;;;;;;;;685391;28;1906;-71
2024/02/02 00:43:39;;;;;;;14.82;7.80;;;;;;;;;;686189;28;810;-69
2024/02/02 00:43:59;;;;;;;13.97;8.00;;;;;;;;;;686872;28;774;-69
2024/02/02 00:44:20;;;;;;;15.40;8.02;;;;;;;;;;685319;28;1826;-70
2024/02/02 00:44:40;;;;;;;14.57;8.43;;;;;;;;;;686742;28;1361;-70
2024/02/02 00:45:01;;;;;;;14.13;8.07;;;;;;;;;;686961;28;1304;-70
2024/02/02 00:45:21;;;;;;;15.65;8.00;;;;;;;;;;685527;28;1943;-72
2024/02/02 00:45:41;;;;;;;19.70;8.00;;;;;;;;;;686737;28;810;-71
2024/02/02 00:46:02;;;;;;;17.63;7.85;;;;;;;;;;686223;28;4267;-71
2024/02/02 00:46:22;;;;;;;16.07;7.90;;;;;;;;;;685563;28;1449;-70
2024/02/02 00:46:42;;;;;;;16.20;8.23;;;;;;;;;;687044;28;1268;-71
2024/02/02 00:47:03;;;;;;;16.83;8.67;;;;;;;;;;686961;28;818;-70
2024/02/02 00:47:23;;;;;;;15.82;8.10;;;;;;;;;;685598;28;1726;-70
2024/02/02 00:47:43;;;;;;;20.53;7.77;;;;;;;;;;686945;28;886;-71
2024/02/02 00:48:04;;;;;;;16.40;7.83;;;;;;;;;;686643;28;1073;-70
2024/02/02 00:48:24;;;;;;;14.10;8.00;;;;;;;;;;684330;28;1796;-70
2024/02/02 00:48:45;;;;;;;13.07;7.87;;;;;;;;;;686646;28;1201;-70
2024/02/02 00:49:05;;;;;;;15.55;7.95;;;;;;;;;;683723;28;4298;-70
2024/02/02 00:49:25;;;;;;;15.00;8.13;;;;;;;;;;683840;28;1059;-70
2024/02/02 00:49:46;;;;;;;16.17;8.32;;;;;;;;;;683942;28;1290;-70
2024/02/02 00:50:06;;;;;;;15.37;8.07;;;;;;;;;;682931;28;984;-70
2024/02/02 00:50:27;;;;;;;14.95;7.90;;;;;;;;;;686825;28;967;-71
2024/02/02 00:50:47;;;;;;;14.60;7.97;;;;;;;;;;686747;28;873;-74
2024/02/02 00:51:07;;;;;;;14.63;8.03;;;;;;;;;;685234;28;1892;-72
2024/02/02 00:51:28;;;;;;;13.13;7.63;;;;;;;;;;686217;28;1371;-69
2024/02/02 00:51:48;;;;;;;15.70;8.07;;;;;;;;;;685941;28;4531;-70
2024/02/02 00:52:08;;;;;;;14.93;7.85;;;;;;;;;;682355;28;1993;-69
2024/02/02 00:52:29;;;;;;;15.53;8.00;;;;;;;;;;683887;28;950;-69
2024/02/02 00:52:49;;;;;;;14.73;8.13;;;;;;;;;;684072;28;1246;-72
2024/02/02 00:53:10;;;;;;;14.27;7.63;;;;;;;;;;683119;28;2483;-69
2024/02/02 00:53:30;;;;;;;16.17;7.95;;;;;;;;;;683957;28;1514;-73
2024/02/02 00:53:50;;;;;;;13.80;7.80;;;;;;;;;;683782;28;1241;-69
2024/02/02 00:54:11;;;;;;;12.90;7.30;;;;;;;;;;682145;28;1979;-70
2024/02/02 00:54:31;;;;;;;14.77;7.90;;;;;;;;;;684268;28;1212;-70
2024/02/02 00:54:51;;;;;;;14.87;7.90;;;;;;;;;;683393;28;4395;-70
2024/02/02 00:55:12;;;;;;;14.30;7.90;;;;;;;;;;682939;28;2324;-70
2024/02/02 00:55:32;;;;;;;14.57;7.73;;;;;;;;;;686783;28;791;-73
2024/02/02 00:55:52;;;;;;;13.70;7.47;;;;;;;;;;684008;28;882;-70
2024/02/02 00:56:13;;;;;;;12.95;7.60;;;;;;;;;;681909;28;956;-72
2024/02/02 00:56:33;;;;;;;16.37;7.83;;;;;;;;;;683853;28;1422;-71
2024/02/02 00:56:53;;;;;;;16.75;8.20;;;;;;;;;;681978;28;1259;-73
2024/02/02 00:57:14;;;;;;;14.07;7.90;;;;;;;;;;681457;28;1152;-70
2024/02/02 00:57:34;;;;;;;16.07;8.00;;;;;;;;;;682124;28;891;-71
2024/02/02 00:57:55;;;;;;;15.73;8.07;;;;;;;;;;684767;28;4257;-71
2024/02/02 00:58:15;;;;;;;16.10;7.73;;;;;;;;;;685737;28;2270;-70
2024/02/02 00:58:35;;;;;;;13.98;7.65;;;;;;;;;;686907;28;1358;-70
2024/02/02 00:58:56;;;;;;;13.43;7.53;;;;;;;;;;685561;28;1170;-72
2024/02/02 00:59:16;;;;;;;15.63;7.85;;;;;;;;;;685758;28;1905;-70
2024/02/02 00:59:36;;;;;;;15.47;7.90;;;;;;;;;;686735;28;1348;-71
2024/02/02 00:59:57;;;;;;;15.63;7.90;;;;;;;;;;686536;28;1141;-70
2024/02/02 01:00:17;;;;;;;15.25;8.07;;;;;;;;;;685684;28;1662;-71
2024/02/02 01:00:37;;;;;;;15.53;8.30;;;;;;;;;;686719;28;782;-71
2024/02/02 01:00:57;;;;;;;16.17;7.90;;;;;;;;;;685548;28;4520;-71
2024/02/02 01:01:18;;;;;;;15.47;7.80;;;;;;;;;;685607;28;2337;-71
2024/02/02 01:01:39;;;;;;;15.23;8.00;;;;;;;;;;684580;28;809;-70
2024/02/02 01:01:59;;;;;;;15.68;8.35;;;;;;;;;;683447;28;1261;-71
2024/02/02 01:02:19;;;;;;;14.77;8.27;;;;;;;;;;682843;28;2533;-71
2024/02/02 01:02:40;;;;;;;15.83;8.30;;;;;;;;;;683850;28;819;-71
2024/02/02 01:03:00;;;;;;;18.70;8.80;;;;;;;;;;684286;28;893;-70
2024/02/02 01:03:21;;;;;;;15.40;8.40;;;;;;;;;;685326;28;1972;-70
2024/02/02 01:03:41;;;;;;;13.53;8.10;;;;;;;;;;686544;28;1342;-69
2024/02/02 01:04:02;;;;;;;15.20;8.05;;;;;;;;;;684726;28;4462;-69
2024/02/02 01:04:22;;;;;;;15.32;8.80;;;;;;;;;;685802;28;2244;-70
2024/02/02 01:04:42;;;;;;;14.40;8.17;;;;;;;;;;686138;28;3803;-70
2024/02/02 01:05:04;;;;;;;13.77;7.87;;;;;;;;;;686458;28;4857;-70
2024/02/02 01:05:24;;;;;;;12.27;7.68;;;;;;;;;;685526;28;2492;-70
2024/02/02 01:05:45;;;;;;;13.57;7.80;;;;;;;;;;687137;28;877;-70
2024/02/02 01:06:05;;;;;;;13.60;7.53;;;;;;;;;;687076;28;912;-70
2024/02/02 01:06:25;;;;;;;14.67;7.73;;;;;;;;;;685454;28;2459;-70
2024/02/02 01:06:46;;;;;;;15.40;7.72;;;;;;;;;;686539;28;1112;-71
2024/02/02 01:07:06;;;;;;;14.00;7.80;;;;;;;;;;684787;28;4319;-69
2024/02/02 01:07:26;;;;;;;16.13;7.60;;;;;;;;;;686514;28;905;-71
2024/02/02 01:07:47;;;;;;;16.17;7.72;;;;;;;;;;686454;28;1350;-71
2024/02/02 01:08:07;;;;;;;18.83;8.23;;;;;;;;;;685483;28;1035;-70
2024/02/02 01:08:28;;;;;;;16.97;8.13;;;;;;;;;;686510;28;822;-70
2024/02/02 01:08:48;;;;;;;15.90;8.03;;;;;;;;;;686343;28;965;-71
2024/02/02 01:09:10;;;;;;;14.32;7.78;;;;;;;;;;685370;28;2607;-70
2024/02/02 01:09:30;;;;;;;16.85;8.30;;;;;;;;;;685955;28;1001;-70
2024/02/02 01:09:51;;;;;;;15.13;8.77;;;;;;;;;;686571;28;4379;-70
2024/02/02 01:10:16;;;;;;;16.00;8.43;;;;;;;;;;685681;28;1468;-70
2024/02/02 01:10:36;;;;;;;14.23;8.00;;;;;;;;;;686427;28;1035;-71
2024/02/02 01:10:56;;;;;;;16.73;7.70;;;;;;;;;;686573;28;964;-70
2024/02/02 01:11:19;;;;;;;16.98;8.00;;;;;;;;;;685953;28;2599;-71
2024/02/02 01:11:39;;;;;;;17.10;8.65;;;;;;;;;;686138;28;949;-70
2024/02/02 01:11:59;;;;;;;21.33;9.03;;;;;;;;;;686760;28;813;-70
2024/02/02 01:12:20;;;;;;;17.35;8.35;;;;;;;;;;685902;28;1943;-70
2024/02/02 01:12:40;;;;;;;15.53;8.17;;;;;;;;;;686941;28;857;-71
2024/02/02 01:13:00;;;;;;;17.20;7.70;;;;;;;;;;686457;28;4408;-71
2024/02/02 01:13:21;;;;;;;15.87;7.77;;;;;;;;;;685758;28;2320;-70
2024/02/02 01:13:41;;;;;;;16.20;8.13;;;;;;;;;;686808;28;882;-69
2024/02/02 01:14:01;;;;;;;17.30;8.55;;;;;;;;;;687042;28;1277;-71
2024/02/02 01:14:21;;;;;;;18.87;8.50;;;;;;;;;;685547;28;1843;-70
2024/02/02 01:14:42;;;;;;;17.90;8.20;;;;;;;;;;686165;28;1130;-70
2024/02/02 01:15:02;;;;;;;17.38;7.97;;;;;;;;;;684811;28;858;-70
2024/02/02 01:15:23;;;;;;;15.95;8.13;;;;;;;;;;685822;28;2227;-71
2024/02/02 01:15:43;;;;;;;18.27;8.47;;;;;;;;;;683801;28;1239;-70
2024/02/02 01:16:03;;;;;;;17.20;8.30;;;;;;;;;;683804;28;4237;-71
2024/02/02 01:16:24;;;;;;;16.17;8.23;;;;;;;;;;683198;28;1452;-72
2024/02/02 01:16:44;;;;;;;20.77;8.83;;;;;;;;;;684006;28;829;-71
2024/02/02 01:17:05;;;;;;;17.58;8.40;;;;;;;;;;683879;28;908;-71
2024/02/02 01:17:25;;;;;;;17.17;8.43;;;;;;;;;;682818;28;1098;-70
2024/02/02 01:17:46;;;;;;;18.67;8.40;;;;;;;;;;684015;28;890;-71
2024/02/02 01:18:07;;;;;;;16.37;7.87;;;;;;;;;;684430;28;858;-70
2024/02/02 01:18:28;;;;;;;15.60;8.05;;;;;;;;;;684583;28;925;-70
2024/02/02 01:18:48;;;;;;;15.00;8.07;;;;;;;;;;683563;28;4448;-70
2024/02/02 01:19:08;;;;;;;17.17;8.30;;;;;;;;;;685634;28;1924;-71
2024/02/02 01:19:28;;;;;;;18.70;8.37;;;;;;;;;;686777;28;1459;-70
2024/02/02 01:19:49;;;;;;;18.03;8.10;;;;;;;;;;686603;28;968;-70
2024/02/02 01:20:12;;;;;;;15.93;7.93;;;;;;;;;;685253;28;2220;-70
2024/02/02 01:20:32;;;;;;;16.70;7.82;;;;;;;;;;686911;28;853;-71
2024/02/02 01:20:52;;;;;;;16.97;7.80;;;;;;;;;;686705;28;842;-70
2024/02/02 01:21:13;;;;;;;19.33;8.05;;;;;;;;;;685110;28;2221;-71
2024/02/02 01:21:33;;;;;;;19.13;8.50;;;;;;;;;;686007;28;1325;-69
2024/02/02 01:21:54;;;;;;;16.60;7.70;;;;;;;;;;686269;28;5142;-70
2024/02/02 01:22:15;;;;;;;15.77;7.37;;;;;;;;;;685659;28;1849;-71
2024/02/02 01:22:35;;;;;;;15.27;7.68;;;;;;;;;;686673;28;913;-71
2024/02/02 01:22:55;;;;;;;13.03;8.10;;;;;;;;;;686588;28;1194;-71
2024/02/02 01:23:15;;;;;;;13.60;7.85;;;;;;;;;;685216;28;1994;-71
2024/02/02 01:23:35;;;;;;;15.07;7.50;;;;;;;;;;686746;28;885;-71
2024/02/02 01:23:56;;;;;;;15.07;7.90;;;;;;;;;;686840;28;1515;-71
2024/02/02 01:24:16;;;;;;;16.47;7.43;;;;;;;;;;685298;28;2227;-70
2024/02/02 01:24:36;;;;;;;16.52;7.40;;;;;;;;;;686755;28;1299;-70
2024/02/02 01:24:57;;;;;;;13.83;7.50;;;;;;;;;;685051;28;4282;-70
2024/02/02 01:25:18;;;;;;;15.13;8.00;;;;;;;;;;681464;28;1451;-70
2024/02/02 01:25:38;;;;;;;13.52;7.85;;;;;;;;;;684588;28;1044;-71
2024/02/02 01:25:58;;;;;;;16.87;7.70;;;;;;;;;;682044;28;942;-71
2024/02/02 01:26:20;;;;;;;16.88;8.20;;;;;;;;;;680840;28;2197;-71
2024/02/02 01:26:40;;;;;;;14.43;8.00;;;;;;;;;;680929;28;969;-70
2024/02/02 01:27:01;;;;;;;16.95;8.40;;;;;;;;;;682383;28;985;-70
2024/02/02 01:27:21;;;;;;;16.27;8.13;;;;;;;;;;682440;28;2293;-70
2024/02/02 01:27:41;;;;;;;16.10;7.63;;;;;;;;;;683816;28;855;-70
2024/02/02 01:28:02;;;;;;;15.45;7.45;;;;;;;;;;685627;28;4398;-69
2024/02/02 01:28:22;;;;;;;16.37;7.90;;;;;;;;;;685487;28;1712;-70
2024/02/02 01:28:42;;;;;;;19.75;8.30;;;;;;;;;;686748;28;850;-70
2024/02/02 01:29:03;;;;;;;18.93;8.23;;;;;;;;;;686815;28;996;-70
2024/02/02 01:29:25;;;;;;;14.98;7.88;;;;;;;;;;685686;28;2352;-69
2024/02/02 01:29:45;;;;;;;15.23;7.80;;;;;;;;;;686539;28;1028;-70
2024/02/02 01:30:06;;;;;;;15.75;7.50;;;;;;;;;;686880;28;806;-70
2024/02/02 01:30:29;;;;;;;16.65;7.32;;;;;;;;;;685775;28;1866;-70
2024/02/02 01:30:49;;;;;;;16.27;7.45;;;;;;;;;;686018;28;4308;-70
2024/02/02 01:31:10;;;;;;;14.47;7.47;;;;;;;;;;683266;28;1699;-71
2024/02/02 01:31:30;;;;;;;13.90;7.65;;;;;;;;;;681422;28;1125;-70
2024/02/02 01:31:50;;;;;;;15.57;7.63;;;;;;;;;;683055;28;6830;-71
2024/02/02 01:32:10;;;;;;;14.50;7.40;;;;;;;;;;682855;28;4864;-71
2024/02/02 01:32:31;;;;;;;17.03;7.77;;;;;;;;;;684107;28;1061;-70
2024/02/02 01:32:51;;;;;;;18.10;7.73;;;;;;;;;;687100;28;854;-70
2024/02/02 01:33:12;;;;;;;13.73;7.40;;;;;;;;;;685592;28;2334;-70
2024/02/02 01:33:32;;;;;;;15.60;8.07;;;;;;;;;;687129;28;869;-69
2024/02/02 01:33:52;;;;;;;16.73;8.30;;;;;;;;;;687136;28;4734;-70
2024/02/02 01:34:13;;;;;;;17.33;7.78;;;;;;;;;;688529;28;1623;-70
2024/02/02 01:34:33;;;;;;;16.93;7.47;;;;;;;;;;687165;28;1340;-70
2024/02/02 01:34:53;;;;;;;14.38;7.43;;;;;;;;;;687289;28;1165;-71
2024/02/02 01:35:14;;;;;;;14.77;7.43;;;;;;;;;;686210;28;1583;-70
2024/02/02 01:35:34;;;;;;;14.87;7.37;;;;;;;;;;686852;28;1335;-70
2024/02/02 01:35:54;;;;;;;15.45;7.53;;;;;;;;;;687088;28;908;-70
2024/02/02 01:36:15;;;;;;;15.20;7.70;;;;;;;;;;686145;28;1267;-70
2024/02/02 01:36:36;;;;;;;16.77;7.60;;;;;;;;;;687233;28;1039;-70
2024/02/02 01:36:56;;;;;;;15.85;7.95;;;;;;;;;;686697;28;4575;-70
2024/02/02 01:37:17;;;;;;;14.73;8.17;;;;;;;;;;686269;28;2530;-70
2024/02/02 01:37:38;;;;;;;13.10;7.50;;;;;;;;;;692590;28;1167;-70
2024/02/02 01:37:58;;;;;;;14.05;7.50;;;;;;;;;;690907;28;1207;-70
2024/02/02 01:38:18;;;;;;;16.43;7.67;;;;;;;;;;690636;28;2007;-71
2024/02/02 01:38:39;;;;;;;17.07;7.80;;;;;;;;;;692442;28;913;-70
2024/02/02 01:38:59;;;;;;;17.40;7.87;;;;;;;;;;692564;28;1234;-71
2024/02/02 01:39:21;;;;;;;15.35;7.65;;;;;;;;;;691262;28;3747;-70
2024/02/02 01:39:41;;;;;;;16.85;7.50;;;;;;;;;;687964;28;1023;-70
2024/02/02 01:40:02;;;;;;;15.02;7.85;;;;;;;;;;686712;28;4388;-70
2024/02/02 01:40:22;;;;;;;13.98;7.50;;;;;;;;;;686162;28;1417;-70
2024/02/02 01:40:43;;;;;;;14.13;7.67;;;;;;;;;;687395;28;794;-70
2024/02/02 01:41:04;;;;;;;14.27;7.60;;;;;;;;;;686937;28;1282;-70
2024/02/02 01:41:25;;;;;;;14.65;7.32;;;;;;;;;;686057;28;1206;-70
2024/02/02 01:41:45;;;;;;;14.13;7.22;;;;;;;;;;687262;28;1346;-70
2024/02/02 01:42:06;;;;;;;14.37;7.13;;;;;;;;;;686827;28;896;-69
2024/02/02 01:42:26;;;;;;;14.88;7.53;;;;;;;;;;686215;28;1853;-69
2024/02/02 01:42:47;;;;;;;16.73;7.40;;;;;;;;;;687469;28;1380;-70
2024/02/02 01:43:07;;;;;;;14.70;7.53;;;;;;;;;;683902;28;4290;-71
2024/02/02 01:43:27;;;;;;;16.20;8.00;;;;;;;;;;683310;28;1910;-71
2024/02/02 01:43:48;;;;;;;15.97;7.50;;;;;;;;;;684254;28;909;-70
2024/02/02 01:44:09;;;;;;;18.83;7.45;;;;;;;;;;679734;28;2347;-70
2024/02/02 01:44:29;;;;;;;16.45;7.65;;;;;;;;;;681846;29;957;-70
2024/02/02 01:44:50;;;;;;;14.43;7.63;;;;;;;;;;681668;29;827;-71
2024/02/02 01:45:10;;;;;;;15.48;7.53;;;;;;;;;;679976;28;2775;-71
2024/02/02 01:45:31;;;;;;;15.30;7.47;;;;;;;;;;684462;28;906;-71
2024/02/02 01:45:51;;;;;;;15.50;7.53;;;;;;;;;;682471;28;4458;-71
2024/02/02 01:46:14;;;;;;;16.75;7.65;;;;;;;;;;683007;28;1806;-70
2024/02/02 01:46:34;;;;;;;14.75;7.43;;;;;;;;;;684531;28;853;-70
2024/02/02 01:46:55;;;;;;;14.20;7.53;;;;;;;;;;684700;28;1114;-71
2024/02/02 01:47:15;;;;;;;16.10;7.50;;;;;;;;;;683010;28;2337;-71
2024/02/02 01:47:35;;;;;;;15.57;7.73;;;;;;;;;;684106;28;1267;-71
2024/02/02 01:47:56;;;;;;;14.48;7.90;;;;;;;;;;684103;28;890;-71
2024/02/02 01:48:16;;;;;;;15.67;7.50;;;;;;;;;;682717;28;2162;-70
2024/02/02 01:48:36;;;;;;;16.13;7.90;;;;;;;;;;684351;28;1131;-70
2024/02/02 01:48:57;;;;;;;16.47;7.60;;;;;;;;;;684005;28;4331;-70
2024/02/02 01:49:17;;;;;;;12.75;7.22;;;;;;;;;;683286;28;1979;-70
2024/02/02 01:49:38;;;;;;;15.57;7.73;;;;;;;;;;684142;28;1151;-70
2024/02/02 01:49:58;;;;;;;15.73;7.70;;;;;;;;;;684886;28;806;-70
2024/02/02 01:50:18;;;;;;;15.60;7.82;;;;;;;;;;681279;28;1017;-69
2024/02/02 01:50:38;;;;;;;16.83;7.70;;;;;;;;;;682554;28;1145;-70
2024/02/02 01:50:59;;;;;;;15.37;7.27;;;;;;;;;;684552;28;817;-70
2024/02/02 01:51:19;;;;;;;15.60;7.63;;;;;;;;;;683571;28;1946;-70
2024/02/02 01:51:40;;;;;;;14.73;7.23;;;;;;;;;;683595;28;826;-70
2024/02/02 01:52:01;;;;;;;15.77;7.28;;;;;;;;;;685770;28;4382;-70
2024/02/02 01:52:21;;;;;;;15.90;7.00;;;;;;;;;;685938;28;1441;-70
2024/02/02 01:52:41;;;;;;;15.40;7.23;;;;;;;;;;686983;28;917;-70
2024/02/02 01:53:02;;;;;;;14.27;7.23;;;;;;;;;;687536;28;842;-70
2024/02/02 01:53:22;;;;;;;15.75;7.88;;;;;;;;;;686226;28;2226;-70
2024/02/02 01:53:42;;;;;;;15.10;7.93;;;;;;;;;;685150;28;1233;-71
2024/02/02 01:54:03;;;;;;;16.65;7.70;;;;;;;;;;687399;28;1270;-71
2024/02/02 01:54:23;;;;;;;14.83;7.67;;;;;;;;;;686288;28;1470;-70
2024/02/02 01:54:44;;;;;;;16.20;7.70;;;;;;;;;;686595;28;869;-71
2024/02/02 01:55:04;;;;;;;16.83;7.60;;;;;;;;;;684240;28;4584;-71
2024/02/02 01:55:25;;;;;;;15.32;7.57;;;;;;;;;;682757;28;2429;-71
2024/02/02 01:55:45;;;;;;;16.27;7.53;;;;;;;;;;684192;28;1008;-70
2024/02/02 01:56:06;;;;;;;15.23;7.57;;;;;;;;;;684531;28;740;-71
2024/02/02 01:56:26;;;;;;;16.85;8.07;;;;;;;;;;683597;28;1135;-70
2024/02/02 01:56:46;;;;;;;13.53;7.13;;;;;;;;;;684388;28;763;-70
2024/02/02 01:57:07;;;;;;;15.93;7.37;;;;;;;;;;684635;28;1243;-70
2024/02/02 01:57:27;;;;;;;14.73;7.88;;;;;;;;;;683533;28;2298;-70
2024/02/02 01:57:47;;;;;;;17.53;7.10;;;;;;;;;;683871;28;4360;-71
2024/02/02 01:58:08;;;;;;;15.40;6.75;;;;;;;;;;687120;28;967;-69
2024/02/02 01:58:28;;;;;;;15.53;7.23;;;;;;;;;;686239;28;1770;-69
2024/02/02 01:58:49;;;;;;;14.83;7.10;;;;;;;;;;686322;28;1401;-69
2024/02/02 01:59:09;;;;;;;15.50;7.15;;;;;;;;;;687209;28;757;-71
2024/02/02 01:59:30;;;;;;;15.37;7.33;;;;;;;;;;686980;28;850;-71
2024/02/02 01:59:50;;;;;;;15.77;7.23;;;;;;;;;;687236;28;984;-71
2024/02/02 02:00:11;;;;;;;16.40;7.83;;;;;;;;;;686536;28;1222;-70
2024/02/02 02:00:31;;;;;;;14.82;7.53;;;;;;;;;;684737;28;1383;-70
2024/02/02 02:00:52;;;;;;;14.17;7.27;;;;;;;;;;685073;28;4361;-70
2024/02/02 02:01:12;;;;;;;16.80;7.60;;;;;;;;;;685040;28;4052;-70
2024/02/02 02:01:32;;;;;;;18.20;7.90;;;;;;;;;;686632;28;1114;-70
2024/02/02 02:01:52;;;;;;;17.30;7.63;;;;;;;;;;686685;28;1187;-69
2024/02/02 02:02:13;;;;;;;18.80;7.40;;;;;;;;;;685289;28;1308;-71
2024/02/02 02:02:33;;;;;;;16.98;7.30;;;;;;;;;;687564;28;913;-71
2024/02/02 02:02:54;;;;;;;18.03;7.50;;;;;;;;;;687066;28;869;-70
2024/02/02 02:03:14;;;;;;;15.10;7.03;;;;;;;;;;685676;28;1914;-71
2024/02/02 02:03:34;;;;;;;13.37;7.13;;;;;;;;;;686945;28;1421;-69
2024/02/02 02:03:54;;;;;;;13.27;7.80;;;;;;;;;;686697;28;4366;-70
2024/02/02 02:04:15;;;;;;;15.80;7.22;;;;;;;;;;685694;28;1750;-70
2024/02/02 02:04:35;;;;;;;13.40;7.07;;;;;;;;;;687069;28;906;-70
2024/02/02 02:04:55;;;;;;;13.23;7.23;;;;;;;;;;687000;28;904;-68
2024/02/02 02:05:15;;;;;;;17.65;7.10;;;;;;;;;;685546;28;2317;-69
2024/02/02 02:05:36;;;;;;;16.83;7.90;;;;;;;;;;686406;28;1337;-70